Time;durP1;ratioP1;P1;durP2;ratioP2;P2;SDS_P1;SDS_P2;PMS_P1;PMS_P2;Temp;Humidity;BMP_temperature;BMP_pressure;BME280_temperature;BME280_humidity;BME280_pressure;Samples;Min_cycle;Max_cycle;Signal;HPM_P1;HPM_P2
2022/01/06 00:00:00;;;;;;;6.10;2.90;;;;;;;1.63;95.02;97854.68;105295;1271;74663;-73
2022/01/06 00:02:26;;;;;;;8.40;3.80;;;;;;;1.63;94.95;97859.73;105233;1271;61371;-74
2022/01/06 00:04:54;;;;;;;6.80;3.10;;;;;;;1.64;95.11;97853.56;105190;1271;62772;-74
2022/01/06 00:07:20;;;;;;;6.10;2.90;;;;;;;1.65;95.15;97850.19;105233;1271;76313;-74
2022/01/06 00:09:49;;;;;;;6.20;3.00;;;;;;;1.67;94.82;97847.96;105243;1271;70155;-73
2022/01/06 00:12:18;;;;;;;9.10;2.90;;;;;;;1.69;94.94;97848.58;104958;1271;73274;-74
2022/01/06 00:15:23;;;;;;;6.50;2.50;;;;;;;1.70;94.79;97845.55;105233;1271;61299;-75
2022/01/06 00:18:15;;;;;;;7.00;3.20;;;;;;;1.70;94.94;97849.05;105204;1271;61337;-74
2022/01/06 00:23:38;;;;;;;7.00;3.50;;;;;;;1.68;94.79;97843.56;105224;1271;70245;-76
2022/01/06 00:26:07;;;;;;;8.70;4.20;;;;;;;1.67;94.98;97852.03;105205;1271;73386;-75
2022/01/06 00:28:35;;;;;;;10.80;4.20;;;;;;;1.66;94.92;97853.46;105233;1271;61352;-74
2022/01/06 00:31:02;;;;;;;10.30;4.50;;;;;;;1.66;95.02;97864.52;104934;1271;61250;-75
2022/01/06 00:33:31;;;;;;;6.90;3.80;;;;;;;1.65;95.08;97869.28;105225;1271;75856;-75
2022/01/06 00:35:58;;;;;;;6.20;3.40;;;;;;;1.64;95.04;97872.84;105219;1271;69187;-75
2022/01/06 00:38:26;;;;;;;9.00;3.80;;;;;;;1.64;95.04;97873.70;105240;1271;74319;-73
2022/01/06 00:40:54;;;;;;;7.60;4.00;;;;;;;1.63;95.14;97876.55;105232;1271;61330;-75
2022/01/06 00:43:21;;;;;;;7.30;4.20;;;;;;;1.62;94.98;97870.34;105311;1271;61291;-75
2022/01/06 00:45:59;;;;;;;7.40;3.50;;;;;;;1.62;95.05;97868.20;105393;1271;74426;-74
2022/01/06 00:48:26;;;;;;;9.60;3.90;;;;;;;1.63;95.07;97871.48;105163;1271;70369;-74
2022/01/06 00:50:53;;;;;;;8.40;4.50;;;;;;;1.63;95.16;97875.87;105173;1271;73227;-75
2022/01/06 00:53:19;;;;;;;7.50;4.10;;;;;;;1.61;94.85;97872.44;105190;1271;61263;-74
2022/01/06 00:55:47;;;;;;;7.70;3.60;;;;;;;1.60;95.04;97877.89;105251;1270;61272;-75
2022/01/06 00:58:14;;;;;;;7.10;4.00;;;;;;;1.60;95.11;97873.89;105243;1271;75098;-74
2022/01/06 01:00:42;;;;;;;8.40;4.60;;;;;;;1.60;95.02;97877.58;105158;1271;69886;-75
2022/01/06 01:03:21;;;;;;;8.30;3.80;;;;;;;1.60;95.09;97874.09;105049;1271;73406;-75
2022/01/06 01:05:53;;;;;;;7.20;3.10;;;;;;;1.58;95.13;97865.80;105072;1271;61160;-73
2022/01/06 01:08:19;;;;;;;7.30;3.70;;;;;;;1.55;95.05;97868.39;105256;1271;61316;-74
2022/01/06 01:10:50;;;;;;;9.90;5.20;;;;;;;1.53;95.05;97871.42;104888;1270;139979;-73
2022/01/06 01:13:26;;;;;;;;;;;;;;;1.53;95.00;97867.05;105187;1271;69205;-74
2022/01/06 01:15:57;;;;;;;7.90;4.10;;;;;;;1.53;95.30;97864.42;105733;1271;73151;-75
2022/01/06 01:18:23;;;;;;;;;;;;;;;1.53;95.33;97865.14;106155;1271;61326;-75
2022/01/06 01:20:52;;;;;;;7.80;3.50;;;;;;;1.52;95.27;97862.56;106212;1271;61263;-73
2022/01/06 01:23:23;;;;;;;7.50;3.40;;;;;;;1.53;95.16;97858.65;105301;1271;74991;-76
2022/01/06 01:25:50;;;;;;;6.70;3.10;;;;;;;1.56;95.15;97860.12;105280;1271;69231;-75
2022/01/06 01:28:17;;;;;;;7.00;4.00;;;;;;;1.57;95.19;97854.45;104959;1272;73310;-73
2022/01/06 01:31:11;;;;;;;7.50;3.40;;;;;;;1.57;95.15;97853.05;105311;1271;61313;-75
2022/01/06 01:33:38;;;;;;;5.60;3.60;;;;;;;1.56;95.19;97853.27;105192;1271;61329;-75
2022/01/06 01:36:05;;;;;;;8.90;4.00;;;;;;;1.56;95.17;97852.77;105260;1271;73810;-74
2022/01/06 01:38:32;;;;;;;9.50;3.80;;;;;;;1.56;95.16;97852.41;105278;1271;70199;-75
2022/01/06 01:40:58;;;;;;;8.90;4.10;;;;;;;1.55;95.15;97858.22;105187;1271;73168;-74
2022/01/06 01:43:25;;;;;;;7.40;3.90;;;;;;;1.53;95.12;97855.34;105240;1271;61192;-74
2022/01/06 01:45:56;;;;;;;8.70;3.80;;;;;;;1.52;95.22;97851.86;105120;1271;61973;-74
2022/01/06 01:48:31;;;;;;;6.00;3.50;;;;;;;1.52;95.11;97850.66;105218;1271;76376;-75
2022/01/06 01:50:58;;;;;;;7.60;4.40;;;;;;;1.52;95.14;97855.39;105313;1271;67283;-75
2022/01/06 01:53:24;;;;;;;7.60;3.90;;;;;;;1.51;95.23;97855.78;105177;1272;73164;-74
2022/01/06 01:55:52;;;;;;;9.80;3.30;;;;;;;1.51;95.30;97862.07;105370;1271;61294;-75
2022/01/06 01:58:21;;;;;;;6.40;3.40;;;;;;;1.52;95.30;97869.36;105707;1271;61756;-74
2022/01/06 02:00:48;;;;;;;5.60;3.10;;;;;;;1.54;95.35;97870.15;105634;1271;76145;-73
2022/01/06 02:03:14;;;;;;;8.50;4.00;;;;;;;1.57;95.11;97870.03;105741;1271;70478;-75
2022/01/06 02:05:41;;;;;;;6.90;3.20;;;;;;;1.60;95.24;97869.38;106305;1270;73068;-74
2022/01/06 02:08:07;;;;;;;7.10;3.50;;;;;;;1.62;95.21;97874.48;107351;1270;61199;-75
2022/01/06 02:10:34;;;;;;;6.00;2.70;;;;;;;1.66;95.13;97882.02;107324;1271;60798;-74
2022/01/06 02:13:02;;;;;;;7.10;3.50;;;;;;;1.70;95.09;97885.84;107167;1270;75191;-74
2022/01/06 02:15:29;;;;;;;5.50;2.90;;;;;;;1.73;95.23;97887.95;106386;1271;69172;-75
2022/01/06 02:17:56;;;;;;;7.80;3.20;;;;;;;1.77;95.08;97890.09;104927;1271;71269;-74
2022/01/06 02:20:23;;;;;;;4.90;3.10;;;;;;;1.79;95.06;97895.04;105225;1271;61494;-74
2022/01/06 02:22:51;;;;;;;5.00;3.10;;;;;;;1.83;94.90;97893.94;105300;1271;61895;-74
2022/01/06 02:25:19;;;;;;;5.00;3.00;;;;;;;1.87;95.04;97896.92;105067;1271;74895;-74
2022/01/06 02:27:48;;;;;;;5.20;2.90;;;;;;;1.88;94.94;97898.61;105189;1271;69677;-75
2022/01/06 02:30:17;;;;;;;4.10;3.20;;;;;;;1.90;94.90;97902.36;105215;1271;73919;-74
2022/01/06 02:32:44;;;;;;;7.40;3.20;;;;;;;1.92;94.87;97909.82;105161;1270;61264;-73
2022/01/06 02:35:19;;;;;;;4.60;2.70;;;;;;;1.93;94.91;97909.77;105205;1271;61219;-74
2022/01/06 02:37:46;;;;;;;5.70;3.80;;;;;;;1.95;94.89;97909.84;105153;1271;76399;-74
2022/01/06 02:40:16;;;;;;;5.70;2.70;;;;;;;1.96;94.86;97906.27;105142;1271;70193;-74
2022/01/06 02:42:47;;;;;;;4.60;3.00;;;;;;;1.96;94.77;97898.70;105174;1271;73263;-73
2022/01/06 02:45:15;;;;;;;8.00;3.30;;;;;;;1.97;94.89;97898.16;105569;1271;61426;-72
2022/01/06 02:47:42;;;;;;;5.50;3.60;;;;;;;1.98;94.66;97896.91;105181;1271;61419;-74
2022/01/06 02:50:11;;;;;;;5.70;3.10;;;;;;;1.99;94.71;97899.98;105319;1271;74552;-75
2022/01/06 02:52:37;;;;;;;4.30;2.80;;;;;;;2.01;94.80;97901.81;105010;1271;68595;-75
2022/01/06 02:55:05;;;;;;;6.50;2.80;;;;;;;2.02;94.73;97899.14;105130;1271;73450;-74
2022/01/06 02:57:32;;;;;;;5.60;3.00;;;;;;;2.03;94.67;97900.14;105442;1271;61260;-71
2022/01/06 03:00:00;;;;;;;6.00;3.00;;;;;;;2.04;94.62;97896.42;105261;1271;61338;-72
2022/01/06 03:02:26;;;;;;;9.50;3.30;;;;;;;2.05;94.60;97897.27;105281;1271;76305;-74
2022/01/06 03:04:53;;;;;;;6.60;3.10;;;;;;;2.06;94.54;97898.27;105168;1271;68634;-73
2022/01/06 03:07:20;;;;;;;4.50;3.10;;;;;;;2.07;94.47;97896.77;105191;1271;73780;-74
2022/01/06 03:09:53;;;;;;;8.00;3.70;;;;;;;2.08;94.48;97896.20;105212;1271;61282;-75
2022/01/06 03:12:26;;;;;;;6.40;2.80;;;;;;;2.09;94.51;97896.86;105253;1271;61353;-75
2022/01/06 03:14:52;;;;;;;4.40;2.50;;;;;;;2.10;94.50;97897.88;105038;1274;76234;-75
2022/01/06 03:17:19;;;;;;;3.70;2.30;;;;;;;2.11;94.48;97900.30;105202;1271;69367;-74
2022/01/06 03:19:46;;;;;;;5.50;2.50;;;;;;;2.12;94.45;97894.45;105203;1270;73355;-76
2022/01/06 03:22:13;;;;;;;5.40;2.80;;;;;;;2.13;94.25;97892.63;105164;1271;61393;-73
2022/01/06 03:24:41;;;;;;;6.00;2.80;;;;;;;2.15;94.24;97898.85;105186;1271;61252;-75
2022/01/06 03:27:08;;;;;;;5.20;2.70;;;;;;;2.16;94.32;97901.43;105171;1271;75370;-74
2022/01/06 03:29:35;;;;;;;6.00;2.80;;;;;;;2.16;94.22;97902.82;104901;1271;70287;-74
2022/01/06 03:32:03;;;;;;;5.00;2.80;;;;;;;2.17;94.22;97902.77;105185;1271;74154;-75
2022/01/06 03:34:32;;;;;;;5.40;2.40;;;;;;;2.19;94.21;97904.09;105206;1271;61317;-75
2022/01/06 03:37:01;;;;;;;6.30;2.70;;;;;;;2.19;94.18;97909.81;105164;1271;61808;-73
2022/01/06 03:39:28;;;;;;;5.40;2.50;;;;;;;2.21;94.05;97910.80;105379;1271;75131;-74
2022/01/06 03:41:55;;;;;;;5.80;3.30;;;;;;;2.23;94.16;97916.34;105227;1271;70169;-74
2022/01/06 03:44:22;;;;;;;5.90;2.70;;;;;;;2.23;94.18;97915.60;105214;1271;73392;-75
2022/01/06 03:46:49;;;;;;;4.50;2.70;;;;;;;2.24;94.11;97918.02;105238;1271;61613;-75
2022/01/06 03:49:15;;;;;;;6.80;2.20;;;;;;;2.26;94.05;97913.19;105202;1271;61287;-76
2022/01/06 03:51:42;;;;;;;5.60;2.40;;;;;;;2.28;93.94;97913.77;105205;1271;76096;-75
2022/01/06 03:54:08;;;;;;;4.50;2.30;;;;;;;2.29;93.88;97920.23;105213;1271;69425;-74
2022/01/06 03:56:36;;;;;;;5.60;2.50;;;;;;;2.28;94.13;97915.52;105214;1271;72759;-74
2022/01/06 03:59:03;;;;;;;2.90;2.00;;;;;;;2.28;94.09;97919.55;105217;1271;61388;-73
2022/01/06 04:01:30;;;;;;;3.70;2.20;;;;;;;2.27;94.04;97918.89;105205;1271;61166;-74
2022/01/06 04:03:56;;;;;;;5.20;2.50;;;;;;;2.30;93.92;97923.52;105203;1271;76096;-75
2022/01/06 04:06:23;;;;;;;4.30;2.20;;;;;;;2.32;93.98;97922.71;105183;1271;70442;-76
2022/01/06 04:08:50;;;;;;;4.40;2.40;;;;;;;2.32;93.95;97926.38;104952;1271;73456;-74
2022/01/06 04:11:17;;;;;;;4.00;2.20;;;;;;;2.32;93.92;97924.59;105223;1271;61380;-76
2022/01/06 04:13:43;;;;;;;4.80;2.40;;;;;;;2.33;94.04;97927.02;105190;1271;61851;-74
2022/01/06 04:16:13;;;;;;;5.00;2.30;;;;;;;2.34;93.85;97937.50;105190;1271;74714;-74
2022/01/06 04:18:40;;;;;;;;;;;;;;;2.34;93.80;97936.95;105243;1271;69184;-74
2022/01/06 04:21:07;;;;;;;4.40;2.40;;;;;;;2.34;93.61;97931.52;105267;1271;72993;-73
2022/01/06 04:23:34;;;;;;;3.50;2.50;;;;;;;2.35;93.64;97937.43;105162;1271;61405;-74
2022/01/06 04:26:00;;;;;;;3.60;2.20;;;;;;;2.36;93.74;97941.59;104942;1271;61283;-75
2022/01/06 04:28:27;;;;;;;5.10;2.60;;;;;;;2.36;93.69;97940.91;105244;1271;76633;-74
2022/01/06 04:30:54;;;;;;;3.80;2.20;;;;;;;2.37;93.93;97946.11;105246;1271;70448;-74
2022/01/06 04:33:21;;;;;;;4.90;2.00;;;;;;;2.37;93.88;97945.05;105253;1271;73501;-74
2022/01/06 04:35:47;;;;;;;5.50;2.30;;;;;;;2.38;93.94;97946.23;105162;1270;61928;-74
2022/01/06 04:38:14;;;;;;;3.60;2.40;;;;;;;2.38;93.89;97944.83;105237;1271;61269;-74
2022/01/06 04:40:40;;;;;;;5.90;2.50;;;;;;;2.39;93.85;97943.19;105183;1271;76162;-75
2022/01/06 04:43:07;;;;;;;4.70;3.20;;;;;;;2.39;93.75;97948.42;105233;1271;69400;-75
2022/01/06 04:45:34;;;;;;;6.30;2.40;;;;;;;2.40;93.83;97944.02;105181;1271;73187;-74
2022/01/06 04:48:01;;;;;;;2.60;1.70;;;;;;;2.41;93.72;97953.42;105214;1271;61326;-74
2022/01/06 04:50:28;;;;;;;4.50;2.30;;;;;;;2.41;93.74;97949.02;105241;1271;61146;-75
2022/01/06 04:52:54;;;;;;;3.40;2.00;;;;;;;2.43;93.76;97952.81;105209;1271;73597;-76
2022/01/06 04:55:21;;;;;;;5.90;2.00;;;;;;;2.44;93.67;97955.38;105189;1271;69219;-75
2022/01/06 04:57:48;;;;;;;3.30;2.20;;;;;;;2.46;93.60;97956.55;104944;1271;74582;-75
2022/01/06 05:00:15;;;;;;;3.90;2.00;;;;;;;2.46;93.62;97957.79;105209;1271;61438;-75
2022/01/06 05:02:41;;;;;;;6.50;2.60;;;;;;;2.46;93.48;97961.23;105174;1271;61854;-75
2022/01/06 05:05:08;;;;;;;3.50;1.90;;;;;;;2.47;93.62;97954.91;105174;1271;74173;-74
2022/01/06 05:07:35;;;;;;;5.10;2.20;;;;;;;2.47;93.63;97959.63;105150;1271;70778;-74
2022/01/06 05:10:02;;;;;;;9.70;3.10;;;;;;;2.47;93.78;97959.10;104923;1271;73338;-74
2022/01/06 05:12:30;;;;;;;7.40;2.90;;;;;;;2.48;93.62;97962.77;105238;1271;61256;-74
2022/01/06 05:14:57;;;;;;;6.00;3.50;;;;;;;2.47;93.64;97972.23;105214;1271;61258;-75
2022/01/06 05:17:24;;;;;;;6.90;3.70;;;;;;;2.46;93.61;97972.45;105192;1271;76275;-75
2022/01/06 05:19:50;;;;;;;5.80;2.70;;;;;;;2.46;93.73;97972.52;105190;1271;69785;-73
2022/01/06 05:22:18;;;;;;;5.70;2.80;;;;;;;2.45;93.86;97965.14;105163;1271;74342;-73
2022/01/06 05:24:44;;;;;;;4.40;2.10;;;;;;;2.45;93.88;97966.92;105218;1271;61312;-75
2022/01/06 05:27:11;;;;;;;4.40;2.30;;;;;;;2.44;93.91;97976.09;105223;1271;61786;-74
2022/01/06 05:29:38;;;;;;;4.40;2.80;;;;;;;2.42;94.01;97971.10;105093;1271;76590;-74
2022/01/06 05:32:05;;;;;;;3.90;2.60;;;;;;;2.41;94.08;97971.45;105213;1271;70518;-75
2022/01/06 05:34:32;;;;;;;5.60;3.00;;;;;;;2.40;94.01;97970.29;105204;1271;73364;-75
2022/01/06 05:36:58;;;;;;;7.40;2.90;;;;;;;2.41;93.98;97975.36;105179;1271;61378;-74
2022/01/06 05:39:25;;;;;;;5.30;2.70;;;;;;;2.40;94.12;97973.27;105211;1271;61469;-74
2022/01/06 05:41:51;;;;;;;8.40;2.50;;;;;;;2.39;94.21;97979.45;105242;1271;75092;-74
2022/01/06 05:44:18;;;;;;;6.50;2.40;;;;;;;2.39;94.12;97978.58;105184;1271;70494;-75
2022/01/06 05:46:47;;;;;;;5.30;2.70;;;;;;;2.39;94.16;97983.66;105108;1271;73327;-74
2022/01/06 05:49:15;;;;;;;7.00;2.80;;;;;;;2.39;94.10;97983.13;105142;1271;61283;-74
2022/01/06 05:51:42;;;;;;;4.80;2.20;;;;;;;2.41;94.11;97983.42;105268;1271;62355;-74
2022/01/06 05:54:09;;;;;;;6.10;2.90;;;;;;;2.42;94.25;97982.83;105191;1271;75261;-74
2022/01/06 05:56:36;;;;;;;5.10;2.60;;;;;;;2.42;94.19;97985.11;105183;1271;68271;-74
2022/01/06 05:59:03;;;;;;;4.40;2.20;;;;;;;2.43;94.25;97985.77;105130;1271;73455;-74
2022/01/06 06:01:30;;;;;;;5.00;2.00;;;;;;;2.43;94.21;97983.52;105212;1271;61304;-75
2022/01/06 06:03:56;;;;;;;4.00;2.30;;;;;;;2.43;94.26;97987.02;105199;1271;62128;-74
2022/01/06 06:06:23;;;;;;;6.80;3.50;;;;;;;2.44;94.28;97989.76;105117;1271;76307;-75
2022/01/06 06:08:50;;;;;;;5.70;2.50;;;;;;;2.44;94.26;97992.71;105206;1271;70532;-74
2022/01/06 06:11:16;;;;;;;7.60;3.50;;;;;;;2.45;94.07;97992.15;105216;1271;74513;-74
2022/01/06 06:13:43;;;;;;;6.90;2.70;;;;;;;2.47;94.16;97993.83;105207;1271;61314;-74
2022/01/06 06:16:09;;;;;;;5.80;3.50;;;;;;;2.48;94.07;97993.43;104990;1271;62395;-75
2022/01/06 06:18:36;;;;;;;7.50;3.90;;;;;;;2.48;94.26;97994.64;105200;1270;75101;-75
2022/01/06 06:21:02;;;;;;;4.50;3.20;;;;;;;2.49;94.15;97998.27;105187;1271;68836;-73
2022/01/06 06:23:29;;;;;;;8.60;3.60;;;;;;;2.49;93.98;98001.41;105244;1271;73203;-73
2022/01/06 06:25:56;;;;;;;8.30;4.90;;;;;;;2.50;94.18;98003.48;105305;1271;61197;-74
2022/01/06 06:28:23;;;;;;;8.50;4.10;;;;;;;2.51;94.19;98009.05;105246;1271;61397;-75
2022/01/06 06:30:49;;;;;;;7.50;3.50;;;;;;;2.52;94.14;98008.10;105544;1271;76700;-75
2022/01/06 06:33:16;;;;;;;5.70;3.70;;;;;;;2.53;94.19;98015.05;106055;1271;69429;-76
2022/01/06 06:35:42;;;;;;;7.10;3.50;;;;;;;2.54;94.29;98025.55;106285;1271;74579;-76
2022/01/06 06:38:09;;;;;;;5.10;3.50;;;;;;;2.54;94.23;98023.47;105882;1271;61375;-73
2022/01/06 06:40:35;;;;;;;6.10;3.80;;;;;;;2.54;94.32;98031.86;105270;1271;61361;-74
2022/01/06 06:43:03;;;;;;;5.30;3.30;;;;;;;2.54;94.30;98032.18;105495;1271;74628;-74
2022/01/06 06:45:30;;;;;;;4.30;3.20;;;;;;;2.55;94.41;98036.36;105303;1271;68285;-74
2022/01/06 06:47:56;;;;;;;6.20;2.50;;;;;;;2.55;94.43;98039.51;105254;1271;72223;-74
2022/01/06 06:50:23;;;;;;;5.70;2.40;;;;;;;2.55;94.52;98038.30;105230;1271;61390;-75
2022/01/06 06:52:50;;;;;;;5.30;2.60;;;;;;;2.55;94.54;98037.59;104881;1270;61285;-74
2022/01/06 06:55:16;;;;;;;7.10;3.30;;;;;;;2.55;94.77;98043.35;105213;1271;76163;-75
2022/01/06 06:57:43;;;;;;;4.50;2.40;;;;;;;2.55;94.77;98050.03;105230;1271;69176;-75
2022/01/06 07:00:10;;;;;;;5.60;3.00;;;;;;;2.54;94.85;98056.93;105198;1271;73215;-73
2022/01/06 07:02:37;;;;;;;4.50;2.90;;;;;;;2.52;95.00;98059.46;105158;1271;61310;-76
2022/01/06 07:05:04;;;;;;;12.70;6.90;;;;;;;2.52;94.97;98054.56;104898;1271;61447;-75
2022/01/06 07:07:31;;;;;;;6.10;3.90;;;;;;;2.52;95.08;98068.08;105043;1272;76108;-75
2022/01/06 07:09:58;;;;;;;17.30;8.60;;;;;;;2.52;95.18;98073.84;105015;1274;69229;-75
2022/01/06 07:12:25;;;;;;;7.90;4.50;;;;;;;2.52;95.26;98076.32;105144;1271;71377;-74
2022/01/06 07:14:51;;;;;;;8.60;5.50;;;;;;;2.52;95.33;98080.16;105113;1271;61274;-75
2022/01/06 07:17:18;;;;;;;13.80;8.90;;;;;;;2.53;95.38;98078.54;105162;1271;61272;-74
2022/01/06 07:19:45;;;;;;;4.90;4.20;;;;;;;2.54;95.48;98084.66;105157;1271;75002;-73
2022/01/06 07:22:11;;;;;;;7.90;3.00;;;;;;;2.53;95.65;98082.04;104896;1274;68693;-75
2022/01/06 07:24:39;;;;;;;6.20;3.40;;;;;;;2.52;95.78;98081.74;104996;1272;71558;-76
2022/01/06 07:27:05;;;;;;;5.70;3.00;;;;;;;2.51;95.79;98084.23;105234;1271;61307;-75
2022/01/06 07:29:32;;;;;;;4.20;2.70;;;;;;;2.50;95.87;98081.66;105235;1271;61339;-75
2022/01/06 07:31:59;;;;;;;6.50;3.20;;;;;;;2.52;95.98;98082.13;105159;1271;75289;-73
2022/01/06 07:34:25;;;;;;;7.60;4.40;;;;;;;2.53;95.94;98083.80;105067;1271;69895;-75
2022/01/06 07:36:52;;;;;;;6.60;3.30;;;;;;;2.55;96.16;98085.45;105185;1271;71552;-75
2022/01/06 07:39:18;;;;;;;6.40;3.50;;;;;;;2.57;96.06;98090.45;105153;1271;61202;-76
2022/01/06 07:41:45;;;;;;;6.40;2.90;;;;;;;2.58;96.08;98095.14;105238;1271;61243;-73
2022/01/06 07:44:12;;;;;;;6.10;3.60;;;;;;;2.60;96.06;98097.86;104999;1271;76341;-71
2022/01/06 07:46:40;;;;;;;5.50;2.90;;;;;;;2.62;96.00;98103.70;105284;1271;70991;-75
2022/01/06 07:49:07;;;;;;;6.40;3.20;;;;;;;2.64;96.07;98104.33;105119;1271;71783;-77
2022/01/06 07:51:33;;;;;;;4.50;3.10;;;;;;;2.66;96.07;98109.30;105236;1271;61314;-77
2022/01/06 07:54:00;;;;;;;9.10;3.80;;;;;;;2.67;96.20;98112.56;105106;1271;61234;-73
2022/01/06 07:56:27;;;;;;;7.00;3.70;;;;;;;2.66;96.38;98114.56;105134;1271;75178;-76
2022/01/06 07:58:55;;;;;;;6.60;3.70;;;;;;;2.64;96.67;98118.32;105092;1274;67697;-74
2022/01/06 08:01:22;;;;;;;7.20;4.10;;;;;;;2.62;96.67;98115.60;105101;1271;74393;-73
2022/01/06 08:03:49;;;;;;;10.10;4.50;;;;;;;2.61;96.80;98115.67;105223;1271;61388;-74
2022/01/06 08:06:16;;;;;;;7.80;4.40;;;;;;;2.60;96.91;98115.90;105120;1271;61158;-73
2022/01/06 08:08:43;;;;;;;8.90;5.50;;;;;;;2.60;96.93;98113.61;105204;1271;76025;-75
2022/01/06 08:11:11;;;;;;;8.60;4.50;;;;;;;2.61;96.87;98117.60;105270;1271;70162;-75
2022/01/06 08:13:38;;;;;;;7.70;4.80;;;;;;;2.62;96.91;98113.66;105478;1271;74167;-75
2022/01/06 08:16:05;;;;;;;6.00;3.90;;;;;;;2.65;96.82;98116.90;105332;1271;61282;-75
2022/01/06 08:18:32;;;;;;;8.30;4.90;;;;;;;2.69;96.79;98116.88;105688;1271;62123;-74
2022/01/06 08:20:59;;;;;;;7.60;4.70;;;;;;;2.75;96.74;98122.02;105735;1271;75216;-78
2022/01/06 08:23:26;;;;;;;10.50;5.40;;;;;;;2.80;96.73;98126.30;105441;1271;70809;-75
2022/01/06 08:25:53;;;;;;;9.40;5.20;;;;;;;2.88;96.59;98121.70;105068;1271;74813;-75
2022/01/06 08:28:20;;;;;;;8.90;5.20;;;;;;;2.95;96.40;98123.63;105062;1271;61368;-73
2022/01/06 08:30:46;;;;;;;10.00;4.80;;;;;;;3.04;96.31;98127.58;105098;1271;61192;-73
2022/01/06 08:33:13;;;;;;;8.20;4.10;;;;;;;3.10;96.28;98130.44;105109;1271;76729;-75
2022/01/06 08:35:40;;;;;;;5.80;3.90;;;;;;;3.17;96.21;98129.23;105102;1271;70528;-74
2022/01/06 08:38:06;;;;;;;7.30;3.80;;;;;;;3.24;95.99;98132.86;105063;1271;72883;-75
2022/01/06 08:40:33;;;;;;;7.20;4.10;;;;;;;3.29;95.74;98137.72;105097;1271;61253;-73
2022/01/06 08:43:00;;;;;;;7.30;4.10;;;;;;;3.33;95.57;98139.27;105129;1271;61246;-74
2022/01/06 08:45:26;;;;;;;7.00;4.10;;;;;;;3.36;95.69;98141.40;105084;1271;74679;-75
2022/01/06 08:47:53;;;;;;;5.20;4.00;;;;;;;3.38;95.36;98147.30;105081;1271;69397;-74
2022/01/06 08:50:20;;;;;;;5.80;4.10;;;;;;;3.38;95.32;98152.91;105072;1271;73222;-76
2022/01/06 08:52:46;;;;;;;6.00;4.10;;;;;;;3.37;95.19;98152.23;104941;1272;61403;-75
2022/01/06 08:55:14;;;;;;;9.50;4.70;;;;;;;3.36;95.03;98153.15;105010;1271;61297;-74
2022/01/06 08:57:41;;;;;;;6.90;3.40;;;;;;;3.38;95.12;98156.20;105142;1271;73206;-74
2022/01/06 09:00:11;;;;;;;7.30;4.80;;;;;;;3.38;95.03;98161.30;104920;1271;69714;-75
2022/01/06 09:02:38;;;;;;;5.80;4.00;;;;;;;3.38;95.19;98158.33;104999;1271;72589;-73
2022/01/06 09:05:10;;;;;;;7.00;4.40;;;;;;;3.41;95.08;98158.34;104990;1271;61383;-75
2022/01/06 09:07:37;;;;;;;8.10;4.50;;;;;;;3.47;95.03;98159.96;105170;1271;61263;-74
2022/01/06 09:10:04;;;;;;;8.40;4.70;;;;;;;3.51;94.86;98163.29;105102;1271;74759;-75
2022/01/06 09:12:31;;;;;;;7.70;4.90;;;;;;;3.56;94.74;98166.91;105169;1271;69244;-75
2022/01/06 09:14:57;;;;;;;8.70;4.80;;;;;;;3.57;94.75;98163.65;104946;1271;73927;-74
2022/01/06 09:17:24;;;;;;;6.30;4.50;;;;;;;3.60;94.60;98169.49;105208;1271;61269;-74
2022/01/06 09:19:51;;;;;;;8.60;4.90;;;;;;;3.66;94.40;98167.73;104894;1271;61622;-82
2022/01/06 09:22:17;;;;;;;6.80;5.10;;;;;;;3.76;94.45;98169.87;105176;1271;76284;-75
2022/01/06 09:24:44;;;;;;;9.00;5.20;;;;;;;3.86;94.43;98169.18;105123;1271;70387;-75
2022/01/06 09:27:10;;;;;;;8.40;5.10;;;;;;;3.92;94.30;98175.52;105182;1271;73452;-75
2022/01/06 09:29:37;;;;;;;9.00;5.00;;;;;;;3.98;94.15;98179.78;105187;1270;61278;-74
2022/01/06 09:32:04;;;;;;;10.40;5.40;;;;;;;4.01;93.83;98182.23;104947;1272;62130;-73
2022/01/06 09:34:31;;;;;;;9.20;5.80;;;;;;;4.05;93.91;98181.36;104916;1272;75116;-75
2022/01/06 09:36:58;;;;;;;16.40;10.80;;;;;;;4.05;93.76;98180.43;105141;1271;69522;-75
2022/01/06 09:39:24;;;;;;;21.00;12.60;;;;;;;4.06;93.78;98180.44;105194;1270;73169;-74
2022/01/06 09:41:51;;;;;;;20.10;12.80;;;;;;;4.04;93.61;98179.66;105080;1271;61381;-75
2022/01/06 09:44:19;;;;;;;11.40;6.20;;;;;;;4.01;93.54;98182.09;105110;1271;61939;-75
2022/01/06 09:46:46;;;;;;;12.60;8.30;;;;;;;4.03;93.62;98185.83;105200;1271;75251;-75
2022/01/06 09:49:13;;;;;;;10.60;6.50;;;;;;;4.11;93.30;98188.59;105231;1271;68256;-76
2022/01/06 09:51:40;;;;;;;10.90;6.20;;;;;;;4.17;92.65;98187.54;105205;1271;74477;-72
2022/01/06 09:54:07;;;;;;;10.70;6.30;;;;;;;4.24;92.47;98187.90;105243;1271;61327;-74
2022/01/06 09:56:35;;;;;;;9.40;4.90;;;;;;;4.25;92.37;98192.23;105225;1271;61166;-74
2022/01/06 09:59:03;;;;;;;8.30;4.30;;;;;;;4.12;91.99;98194.68;105240;1271;75380;-75
2022/01/06 10:01:29;;;;;;;7.00;4.40;;;;;;;3.96;92.34;98200.29;105220;1271;69612;-76
2022/01/06 10:03:56;;;;;;;8.60;4.70;;;;;;;3.84;92.71;98206.02;105144;1271;74433;-76
2022/01/06 10:06:28;;;;;;;6.80;4.00;;;;;;;3.68;92.67;98215.98;105211;1271;61253;-70
2022/01/06 10:08:56;;;;;;;5.50;3.70;;;;;;;3.52;93.03;98223.61;105203;1271;61975;-75
2022/01/06 10:11:26;;;;;;;5.50;3.60;;;;;;;3.38;93.37;98229.44;105092;1270;76022;-74
2022/01/06 10:13:59;;;;;;;6.80;3.80;;;;;;;3.27;93.67;98229.10;105338;1271;69422;-75
2022/01/06 10:16:29;;;;;;;5.20;4.70;;;;;;;3.26;93.96;98236.89;105438;1271;73355;-74
2022/01/06 10:19:09;;;;;;;9.20;5.10;;;;;;;3.23;93.84;98238.62;105364;1271;61264;-74
2022/01/06 10:21:39;;;;;;;8.30;4.70;;;;;;;3.21;94.31;98246.43;105212;1271;61202;-74
2022/01/06 10:24:17;;;;;;;6.70;5.30;;;;;;;3.18;94.64;98244.98;105240;1271;75591;-76
2022/01/06 10:27:04;;;;;;;10.80;6.10;;;;;;;3.13;94.42;98244.90;105161;1271;69677;-73
2022/01/06 10:29:40;;;;;;;7.20;5.80;;;;;;;3.07;94.78;98247.42;105176;1270;73193;-76
2022/01/06 10:32:10;;;;;;;6.70;5.00;;;;;;;3.03;94.68;98248.34;105209;1271;61298;-76
2022/01/06 10:34:40;;;;;;;6.60;5.70;;;;;;;2.99;94.84;98252.92;105233;1271;61269;-76
2022/01/06 10:37:28;;;;;;;6.70;6.10;;;;;;;2.94;94.93;98251.07;105140;1271;76061;-76
2022/01/06 10:39:58;;;;;;;7.30;6.60;;;;;;;2.90;94.79;98255.85;105248;1271;69535;-77
2022/01/06 10:42:31;;;;;;;6.70;5.70;;;;;;;2.87;94.78;98258.09;105283;1271;72943;-77
2022/01/06 10:45:05;;;;;;;7.70;6.00;;;;;;;2.80;94.35;98258.59;105283;1271;61240;-78
2022/01/06 10:47:32;;;;;;;6.40;5.70;;;;;;;2.74;94.50;98262.88;105039;1271;61289;-75
2022/01/06 10:50:26;;;;;;;7.20;5.30;;;;;;;2.72;94.06;98270.20;105145;1271;75311;-75
2022/01/06 10:53:01;;;;;;;6.80;4.40;;;;;;;2.71;93.61;98273.21;105219;1271;70330;-75
2022/01/06 10:55:30;;;;;;;5.90;3.80;;;;;;;2.78;92.41;98266.72;105005;1271;72635;-78
2022/01/06 10:58:00;;;;;;;4.10;3.30;;;;;;;2.94;92.49;98268.83;105193;1270;61303;-76
2022/01/06 11:00:29;;;;;;;7.20;3.20;;;;;;;3.12;91.78;98268.29;105211;1271;62148;-75
2022/01/06 11:03:15;;;;;;;6.20;4.10;;;;;;;3.14;91.89;98269.40;105184;1271;74685;-76
2022/01/06 11:05:51;;;;;;;3.60;2.80;;;;;;;3.14;91.60;98273.09;105174;1271;69492;-74
2022/01/06 11:08:25;;;;;;;2.40;2.20;;;;;;;3.12;90.06;98285.48;105183;1271;72824;-75
2022/01/06 11:13:41;;;;;;;3.80;2.70;;;;;;;3.01;88.40;98290.39;105307;1271;61752;-75
2022/01/06 11:16:12;;;;;;;5.40;2.90;;;;;;;2.99;88.59;98295.20;105385;1271;74816;-76
2022/01/06 11:18:48;;;;;;;4.20;2.60;;;;;;;3.00;87.70;98297.80;105251;1271;69025;-75
2022/01/06 11:21:18;;;;;;;4.30;2.80;;;;;;;2.97;87.75;98298.82;105351;1271;73203;-76
2022/01/06 11:23:45;;;;;;;5.40;2.90;;;;;;;2.94;88.14;98301.59;105764;1271;61303;-74
2022/01/06 11:26:17;;;;;;;6.40;3.40;;;;;;;2.90;87.72;98305.27;105862;1271;61307;-75
2022/01/06 11:28:55;;;;;;;4.40;3.20;;;;;;;2.90;88.23;98310.36;105976;1271;75732;-76
2022/01/06 11:31:25;;;;;;;4.90;3.20;;;;;;;2.89;86.11;98312.54;106481;1271;69246;-77
2022/01/06 11:33:58;;;;;;;4.10;2.60;;;;;;;2.81;85.40;98316.07;107810;1271;73544;-76
2022/01/06 11:36:35;;;;;;;4.60;2.50;;;;;;;2.75;85.36;98322.10;107654;1270;61367;-73
2022/01/06 11:39:08;;;;;;;4.00;2.30;;;;;;;2.71;83.54;98324.09;107897;1271;60798;-74
2022/01/06 11:41:39;;;;;;;3.00;1.90;;;;;;;2.64;83.39;98328.95;107519;1271;75177;-77
2022/01/06 11:44:20;;;;;;;8.10;4.10;;;;;;;2.52;82.41;98332.99;105183;1271;67694;-77